Time;durP1;ratioP1;P1;durP2;ratioP2;P2;SDS_P1;SDS_P2;PMS_P1;PMS_P2;Temp;Humidity;BMP_temperature;BMP_pressure;BME280_temperature;BME280_humidity;BME280_pressure;Samples;Min_cycle;Max_cycle;Signal;HPM_P1;HPM_P2
2021/08/04 00:00:25;;;;;;;7.60;6.73;;;16.10;99.90;;;;;;5029093;28;20189;-38
2021/08/04 00:02:51;;;;;;;9.40;7.70;;;16.20;99.90;;;;;;5030407;28;20818;-38
2021/08/04 00:05:17;;;;;;;9.00;8.20;;;16.20;99.90;;;;;;5037565;28;20436;-38
2021/08/04 00:07:43;;;;;;;9.10;8.30;;;16.20;99.90;;;;;;5041546;28;20825;-38
2021/08/04 00:10:09;;;;;;;8.63;7.73;;;16.20;99.90;;;;;;5031457;28;20509;-38
2021/08/04 00:12:35;;;;;;;9.00;8.10;;;16.30;99.90;;;;;;5031017;28;20183;-38
2021/08/04 00:15:01;;;;;;;8.87;8.07;;;16.30;99.90;;;;;;5028851;28;20436;-39
2021/08/04 00:17:26;;;;;;;8.60;7.90;;;16.30;99.90;;;;;;5032269;28;20284;-38
2021/08/04 00:19:52;;;;;;;8.67;7.87;;;16.30;99.90;;;;;;5045996;28;20547;-39
2021/08/04 00:22:18;;;;;;;8.27;7.47;;;16.30;99.90;;;;;;5040617;28;20229;-38
2021/08/04 00:24:44;;;;;;;8.47;7.70;;;16.30;99.90;;;;;;5027981;28;20666;-38
2021/08/04 00:27:09;;;;;;;7.90;7.10;;;16.30;99.90;;;;;;5029168;28;20740;-38
2021/08/04 00:29:35;;;;;;;7.33;6.63;;;16.30;99.90;;;;;;5033689;28;20413;-38
2021/08/04 00:32:00;;;;;;;8.07;7.23;;;16.30;99.90;;;;;;5034081;28;20186;-39
2021/08/04 00:34:26;;;;;;;8.27;7.53;;;16.30;99.90;;;;;;5037317;28;20275;-38
2021/08/04 00:36:52;;;;;;;7.67;6.90;;;16.30;99.90;;;;;;5038036;28;20193;-38
2021/08/04 00:39:17;;;;;;;8.03;7.33;;;16.30;99.90;;;;;;5028059;28;20202;-38
2021/08/04 00:41:43;;;;;;;8.17;7.47;;;16.30;99.90;;;;;;5037954;28;20250;-38
2021/08/04 00:44:09;;;;;;;8.53;7.77;;;16.30;99.90;;;;;;5027946;28;20202;-38
2021/08/04 00:46:43;;;;;;;8.63;7.73;;;16.30;99.90;;;;;;5028091;28;20591;-38
2021/08/04 00:49:13;;;;;;;8.40;7.70;;;16.30;99.90;;;;;;5037710;28;20494;-38
2021/08/04 00:51:39;;;;;;;8.60;7.80;;;16.30;99.90;;;;;;5038449;28;20473;-38
2021/08/04 00:54:07;;;;;;;10.00;8.80;;;16.30;99.90;;;;;;5027322;28;20900;-39
2021/08/04 00:56:33;;;;;;;8.53;7.67;;;16.30;99.90;;;;;;5034134;28;20285;-39
2021/08/04 00:59:02;;;;;;;9.00;8.10;;;16.30;99.90;;;;;;5027685;28;20428;-38
2021/08/04 01:01:51;;;;;;;8.33;7.63;;;16.30;99.90;;;;;;5027727;28;20832;-38
2021/08/04 01:04:39;;;;;;;7.50;5.93;;;16.30;99.90;;;;;;5033021;28;20413;-37
2021/08/04 01:07:11;;;;;;;6.33;5.77;;;16.30;99.90;;;;;;5040560;28;20748;-37
2021/08/04 01:09:45;;;;;;;7.70;6.13;;;16.30;99.90;;;;;;5027655;28;20459;-37
2021/08/04 01:12:17;;;;;;;6.80;6.20;;;16.30;99.90;;;;;;5029197;28;20563;-37
2021/08/04 01:14:46;;;;;;;7.40;6.17;;;16.20;99.90;;;;;;5027737;28;20417;-37
2021/08/04 01:17:14;;;;;;;7.10;6.40;;;16.30;99.90;;;;;;5028324;28;20435;-37
2021/08/04 01:19:49;;;;;;;10.13;7.43;;;16.30;99.90;;;;;;5033218;28;20432;-37
2021/08/04 01:22:37;;;;;;;8.20;7.40;;;16.30;99.90;;;;;;5032946;28;20463;-37
2021/08/04 01:25:13;;;;;;;10.57;8.27;;;16.30;99.90;;;;;;5027521;28;20496;-37
2021/08/04 01:28:12;;;;;;;9.03;8.27;;;16.30;99.90;;;;;;5037139;28;20424;-38
2021/08/04 01:30:39;;;;;;;9.60;8.70;;;16.30;99.90;;;;;;5008900;28;20429;-38
2021/08/04 01:33:05;;;;;;;9.80;6.13;;;16.30;99.90;;;;;;5028260;28;20468;-37
2021/08/04 01:35:32;;;;;;;6.50;5.97;;;16.30;99.90;;;;;;5034982;28;20451;-38
2021/08/04 01:37:59;;;;;;;6.63;6.13;;;16.30;99.90;;;;;;5032040;28;20428;-38
2021/08/04 01:40:26;;;;;;;5.70;5.20;;;16.30;99.90;;;;;;5027549;28;20935;-37
2021/08/04 01:42:53;;;;;;;8.37;6.27;;;16.30;99.90;;;;;;5033478;28;20476;-37
2021/08/04 01:45:19;;;;;;;7.67;6.80;;;16.30;99.90;;;;;;5027644;28;20425;-38
2021/08/04 01:47:45;;;;;;;8.70;7.90;;;16.30;99.90;;;;;;5025134;28;20441;-37
2021/08/04 01:50:13;;;;;;;8.00;7.20;;;16.30;99.90;;;;;;5033535;28;20413;-38
2021/08/04 01:52:39;;;;;;;7.00;6.40;;;16.30;99.90;;;;;;5043736;28;20955;-38
2021/08/04 01:55:07;;;;;;;6.93;6.33;;;16.30;99.90;;;;;;5025972;28;20425;-37
2021/08/04 01:57:33;;;;;;;7.70;7.03;;;16.20;99.90;;;;;;5028959;28;20209;-38
2021/08/04 01:59:59;;;;;;;8.07;7.37;;;16.20;99.90;;;;;;5027602;28;20448;-38
2021/08/04 02:02:24;;;;;;;7.77;7.13;;;16.20;99.90;;;;;;5026773;28;20495;-37
2021/08/04 02:04:53;;;;;;;7.30;6.60;;;16.20;99.90;;;;;;5038401;28;20196;-37
2021/08/04 02:07:59;;;;;;;8.30;7.50;;;16.10;99.90;;;;;;5030714;28;20187;-37
2021/08/04 02:10:52;;;;;;;7.70;7.00;;;16.20;99.90;;;;;;5027194;28;20436;-38
2021/08/04 02:13:35;;;;;;;9.10;8.30;;;16.10;99.90;;;;;;5036901;28;20420;-37
2021/08/04 02:16:29;;;;;;;8.70;7.90;;;16.10;99.90;;;;;;5047222;28;20803;-37
2021/08/04 02:19:15;;;;;;;8.20;7.50;;;16.10;99.90;;;;;;5040802;28;20430;-38
2021/08/04 02:21:43;;;;;;;7.40;6.80;;;16.10;99.90;;;;;;5035611;28;20810;-37
2021/08/04 02:24:12;;;;;;;7.93;7.23;;;16.10;99.90;;;;;;5025306;28;20417;-38
2021/08/04 02:26:40;;;;;;;6.40;5.73;;;16.10;99.90;;;;;;5034180;28;20447;-38
2021/08/04 02:29:07;;;;;;;8.10;7.30;;;16.10;99.90;;;;;;5041004;28;20447;-37
2021/08/04 02:31:34;;;;;;;7.40;6.70;;;16.10;99.90;;;;;;5032886;28;20848;-37
2021/08/04 02:34:01;;;;;;;7.00;6.30;;;16.10;99.90;;;;;;5030500;28;20436;-37
2021/08/04 02:36:27;;;;;;;7.00;6.40;;;16.10;99.90;;;;;;5042495;28;20462;-37
2021/08/04 02:38:56;;;;;;;7.50;6.80;;;16.00;99.90;;;;;;5037431;28;20434;-37
2021/08/04 02:41:22;;;;;;;6.67;6.17;;;16.00;99.90;;;;;;5029261;28;20185;-37
2021/08/04 02:43:48;;;;;;;7.80;7.00;;;16.10;99.90;;;;;;5025347;28;20416;-38
2021/08/04 02:46:13;;;;;;;8.10;7.30;;;16.00;99.90;;;;;;5026758;28;20524;-37
2021/08/04 02:48:39;;;;;;;7.90;7.20;;;16.10;99.90;;;;;;5028226;28;20179;-37
2021/08/04 02:51:10;;;;;;;9.20;8.30;;;16.10;99.90;;;;;;5043661;28;20653;-37
2021/08/04 02:53:36;;;;;;;9.23;7.57;;;16.10;99.90;;;;;;5037039;28;20657;-38
2021/08/04 02:56:02;;;;;;;8.93;8.10;;;16.10;99.90;;;;;;5030079;28;20432;-37
2021/08/04 02:58:28;;;;;;;10.47;9.43;;;16.10;99.90;;;;;;5041717;28;20418;-37
2021/08/04 03:00:54;;;;;;;9.90;8.90;;;16.10;99.90;;;;;;5030125;28;20645;-37
2021/08/04 03:03:20;;;;;;;8.73;8.03;;;16.10;99.90;;;;;;5031024;28;20821;-37
2021/08/04 03:05:46;;;;;;;8.60;7.90;;;16.10;99.90;;;;;;5036684;28;20408;-37
2021/08/04 03:08:12;;;;;;;8.93;8.00;;;16.10;99.90;;;;;;5037659;28;20199;-39
2021/08/04 03:10:37;;;;;;;10.47;8.47;;;16.10;99.90;;;;;;5029725;28;20725;-37
2021/08/04 03:13:03;;;;;;;9.50;8.60;;;16.10;99.90;;;;;;5037946;28;20330;-37
2021/08/04 03:15:29;;;;;;;13.60;9.00;;;16.10;99.90;;;;;;5029851;28;20193;-37
2021/08/04 03:17:54;;;;;;;9.30;8.50;;;16.10;99.90;;;;;;5029198;28;20186;-37
2021/08/04 03:20:20;;;;;;;9.17;8.33;;;16.10;99.90;;;;;;5041448;28;20273;-37
2021/08/04 03:22:48;;;;;;;8.90;8.20;;;16.10;99.90;;;;;;5044703;28;20224;-38
2021/08/04 03:25:15;;;;;;;9.73;8.60;;;16.00;99.90;;;;;;5035373;28;20190;-38
2021/08/04 03:27:41;;;;;;;10.13;9.13;;;16.10;99.90;;;;;;5034210;28;20417;-37
2021/08/04 03:30:07;;;;;;;9.30;8.43;;;16.10;99.90;;;;;;5038833;28;20455;-37
2021/08/04 03:32:33;;;;;;;9.43;8.63;;;16.10;99.90;;;;;;5029393;28;20201;-37
2021/08/04 03:34:58;;;;;;;9.47;8.33;;;16.00;99.90;;;;;;5033343;28;21035;-37
2021/08/04 03:37:24;;;;;;;8.53;7.67;;;16.00;99.90;;;;;;5034536;28;20205;-37
2021/08/04 03:39:49;;;;;;;8.87;7.90;;;16.10;99.90;;;;;;5029479;28;20190;-37
2021/08/04 03:42:16;;;;;;;7.70;7.00;;;16.00;99.90;;;;;;5029774;28;20206;-38
2021/08/04 03:44:43;;;;;;;7.53;6.83;;;16.00;99.90;;;;;;5029163;28;20301;-37
2021/08/04 03:47:09;;;;;;;7.60;6.90;;;16.00;99.90;;;;;;5028794;28;20425;-37
2021/08/04 03:49:35;;;;;;;7.80;7.10;;;16.00;99.90;;;;;;5029669;28;21114;-37
2021/08/04 03:52:00;;;;;;;7.37;6.70;;;16.00;99.90;;;;;;5033583;28;20202;-37
2021/08/04 03:54:26;;;;;;;7.33;6.73;;;16.00;99.90;;;;;;5028971;28;20432;-38
2021/08/04 03:56:52;;;;;;;7.60;6.80;;;16.00;99.90;;;;;;5032372;28;20570;-38
2021/08/04 03:59:17;;;;;;;7.80;7.10;;;16.00;99.90;;;;;;5034218;28;20194;-37
2021/08/04 04:01:43;;;;;;;8.73;7.67;;;15.90;99.90;;;;;;5028582;28;20286;-38
2021/08/04 04:04:08;;;;;;;9.20;8.40;;;15.90;99.90;;;;;;5029705;28;20191;-37
2021/08/04 04:06:34;;;;;;;8.73;8.00;;;15.90;99.90;;;;;;5041851;28;20272;-37
2021/08/04 04:09:00;;;;;;;10.10;9.17;;;15.90;99.90;;;;;;5046192;28;20252;-38
2021/08/04 04:11:26;;;;;;;9.13;8.30;;;15.90;99.90;;;;;;5027766;28;20187;-38
2021/08/04 04:13:52;;;;;;;8.27;7.67;;;15.80;99.90;;;;;;5032882;28;20187;-37
2021/08/04 04:16:18;;;;;;;8.70;7.90;;;15.80;99.90;;;;;;5028697;28;20189;-38
2021/08/04 04:18:43;;;;;;;7.47;6.70;;;15.80;99.90;;;;;;5028729;28;20791;-37
2021/08/04 04:21:09;;;;;;;8.03;7.23;;;15.80;99.90;;;;;;5041114;28;20507;-38
2021/08/04 04:23:35;;;;;;;11.90;8.37;;;15.80;99.90;;;;;;5037601;28;20182;-38
2021/08/04 04:26:02;;;;;;;7.77;7.07;;;15.70;99.90;;;;;;5028897;28;20189;-37
2021/08/04 04:28:29;;;;;;;8.93;8.13;;;15.70;99.90;;;;;;5028889;28;20191;-37
2021/08/04 04:30:54;;;;;;;9.50;8.60;;;15.60;99.90;;;;;;5036743;28;20964;-38
2021/08/04 04:33:20;;;;;;;9.87;8.83;;;15.60;99.90;;;;;;5028245;28;20421;-38
2021/08/04 04:35:46;;;;;;;9.40;8.60;;;15.60;99.90;;;;;;5040265;28;20187;-37
2021/08/04 04:38:11;;;;;;;12.67;9.23;;;15.60;99.90;;;;;;5038117;28;20186;-37
2021/08/04 04:40:37;;;;;;;9.70;8.80;;;15.60;99.90;;;;;;5028386;28;20178;-37
2021/08/04 04:43:03;;;;;;;9.90;8.90;;;15.60;99.90;;;;;;5037877;28;20309;-38
2021/08/04 04:45:28;;;;;;;9.40;8.57;;;15.60;99.90;;;;;;5027864;28;20197;-38
2021/08/04 04:47:54;;;;;;;9.93;8.87;;;15.60;99.90;;;;;;5027702;28;20253;-37
2021/08/04 04:50:20;;;;;;;9.43;8.53;;;15.50;99.90;;;;;;5035598;28;20182;-38
2021/08/04 04:52:45;;;;;;;9.33;8.43;;;15.50;99.90;;;;;;5036854;28;20269;-37
2021/08/04 04:55:12;;;;;;;8.97;8.27;;;15.50;99.90;;;;;;5027749;28;20552;-37
2021/08/04 04:57:38;;;;;;;9.60;8.60;;;15.50;99.90;;;;;;5033452;28;20212;-37
2021/08/04 05:00:05;;;;;;;9.70;8.80;;;15.60;99.90;;;;;;5027701;28;20471;-37
2021/08/04 05:02:31;;;;;;;8.67;7.93;;;15.60;99.90;;;;;;5034300;28;20214;-38
2021/08/04 05:04:58;;;;;;;8.80;8.00;;;15.60;99.90;;;;;;5024798;28;20483;-37
2021/08/04 05:07:25;;;;;;;8.70;7.90;;;15.60;99.90;;;;;;5042699;28;20223;-37
2021/08/04 05:09:50;;;;;;;10.33;9.00;;;15.60;99.90;;;;;;5035065;28;20449;-37
2021/08/04 05:12:16;;;;;;;9.30;8.50;;;15.60;99.90;;;;;;5025826;28;20578;-37
2021/08/04 05:14:42;;;;;;;9.50;8.60;;;15.60;99.90;;;;;;5025342;28;20182;-37
2021/08/04 05:17:12;;;;;;;9.97;8.97;;;15.60;99.90;;;;;;5028612;28;20194;-38
2021/08/04 05:19:38;;;;;;;11.77;9.07;;;15.60;99.90;;;;;;5035006;28;20243;-37
2021/08/04 05:22:04;;;;;;;10.50;9.50;;;15.70;99.90;;;;;;5038114;28;20832;-37
2021/08/04 05:24:29;;;;;;;11.43;10.30;;;15.70;99.90;;;;;;5031567;28;20716;-38
2021/08/04 05:26:55;;;;;;;11.03;10.13;;;15.70;99.90;;;;;;5024541;28;20194;-38
2021/08/04 05:29:21;;;;;;;11.17;10.20;;;15.80;99.90;;;;;;5038513;28;20648;-37
2021/08/04 05:31:46;;;;;;;13.53;11.07;;;15.80;99.90;;;;;;5029821;28;20287;-37
2021/08/04 05:34:12;;;;;;;12.13;10.93;;;15.80;99.90;;;;;;5025207;28;20317;-37
2021/08/04 05:36:38;;;;;;;12.03;10.83;;;15.80;99.90;;;;;;5038012;28;20768;-37
2021/08/04 05:39:03;;;;;;;12.30;11.20;;;15.90;99.90;;;;;;5040604;28;20278;-37
2021/08/04 05:41:29;;;;;;;13.70;12.40;;;16.00;99.90;;;;;;5027127;28;20220;-37
2021/08/04 05:43:55;;;;;;;14.33;12.93;;;16.00;99.90;;;;;;5036215;28;20194;-37
2021/08/04 05:46:20;;;;;;;13.77;12.37;;;16.10;99.90;;;;;;5025378;28;20208;-37
2021/08/04 05:48:46;;;;;;;14.97;13.47;;;16.20;99.90;;;;;;5025544;28;20629;-37
2021/08/04 05:51:12;;;;;;;13.70;12.30;;;16.20;99.90;;;;;;5032554;28;20185;-37
2021/08/04 05:53:37;;;;;;;13.87;12.33;;;16.30;99.90;;;;;;5035623;28;20628;-37
2021/08/04 05:56:03;;;;;;;13.73;12.43;;;16.40;99.90;;;;;;5029145;28;20632;-37
2021/08/04 05:58:29;;;;;;;14.37;12.77;;;16.40;99.90;;;;;;5025612;28;20656;-38
2021/08/04 06:00:54;;;;;;;13.87;12.60;;;16.50;99.90;;;;;;5025349;28;20939;-37
2021/08/04 06:03:20;;;;;;;12.50;11.30;;;16.50;99.90;;;;;;5024978;28;20214;-37
2021/08/04 06:05:46;;;;;;;13.07;11.87;;;16.60;99.90;;;;;;5032218;28;20182;-37
2021/08/04 06:08:12;;;;;;;12.17;10.83;;;16.60;99.90;;;;;;5030157;28;20228;-38
2021/08/04 06:10:37;;;;;;;12.27;11.17;;;16.60;99.90;;;;;;5025907;28;20191;-38
2021/08/04 06:13:03;;;;;;;12.73;11.50;;;16.70;99.90;;;;;;5029937;28;20189;-37
2021/08/04 06:15:29;;;;;;;10.90;9.90;;;16.70;99.90;;;;;;5030540;28;20194;-38
2021/08/04 06:17:55;;;;;;;13.57;12.20;;;16.70;99.90;;;;;;5025068;28;20457;-37
2021/08/04 06:20:20;;;;;;;11.47;10.37;;;16.80;99.90;;;;;;5026948;28;20529;-37
2021/08/04 06:22:46;;;;;;;16.33;10.70;;;16.90;99.90;;;;;;5035978;28;20208;-37
2021/08/04 06:25:12;;;;;;;13.30;11.37;;;17.00;99.90;;;;;;5033469;28;20186;-37
2021/08/04 06:27:38;;;;;;;14.00;12.60;;;17.10;99.90;;;;;;5029253;28;20696;-37
2021/08/04 06:30:05;;;;;;;12.67;11.47;;;17.10;99.90;;;;;;5042473;28;20173;-37
2021/08/04 06:32:31;;;;;;;11.30;10.30;;;17.20;99.90;;;;;;5036476;28;20456;-37
2021/08/04 06:34:56;;;;;;;11.90;10.90;;;17.20;99.90;;;;;;5035434;28;21186;-38
2021/08/04 06:37:22;;;;;;;11.70;10.70;;;17.30;99.90;;;;;;5041198;28;20189;-38
2021/08/04 06:39:48;;;;;;;10.63;9.63;;;17.20;99.90;;;;;;5040968;28;20239;-37
2021/08/04 06:42:13;;;;;;;12.10;10.90;;;17.20;99.90;;;;;;5028392;28;20228;-38
2021/08/04 06:44:40;;;;;;;12.87;11.20;;;17.30;99.90;;;;;;5030636;28;20191;-37
2021/08/04 06:47:06;;;;;;;10.70;9.57;;;17.30;99.90;;;;;;5028606;28;20552;-38
2021/08/04 06:49:32;;;;;;;9.77;8.87;;;17.30;99.90;;;;;;5027016;28;20413;-37
2021/08/04 06:51:58;;;;;;;11.63;10.50;;;17.30;99.90;;;;;;5040526;28;20193;-38
2021/08/04 06:54:24;;;;;;;10.10;9.20;;;17.30;99.90;;;;;;5038717;28;20440;-37
2021/08/04 06:56:51;;;;;;;11.27;10.27;;;17.30;99.90;;;;;;5028236;28;20798;-37
2021/08/04 06:59:16;;;;;;;11.47;10.37;;;17.30;99.90;;;;;;5037993;28;20428;-38
2021/08/04 07:01:44;;;;;;;13.10;11.80;;;17.30;99.90;;;;;;5028374;28;20474;-38
2021/08/04 07:04:11;;;;;;;11.10;10.10;;;17.40;99.90;;;;;;5029874;28;20194;-38
2021/08/04 07:06:37;;;;;;;12.27;11.10;;;17.40;99.90;;;;;;5040389;28;20424;-37
2021/08/04 07:09:03;;;;;;;12.03;11.00;;;17.40;99.90;;;;;;5032729;28;20441;-38
2021/08/04 07:11:28;;;;;;;12.07;10.83;;;17.30;99.90;;;;;;5039164;28;20213;-38
2021/08/04 07:13:55;;;;;;;12.33;11.23;;;17.40;99.90;;;;;;5030567;28;20452;-38
2021/08/04 07:16:21;;;;;;;10.77;9.80;;;17.40;99.90;;;;;;5041484;28;20371;-37
2021/08/04 07:18:47;;;;;;;11.50;10.50;;;17.40;99.90;;;;;;5030446;28;20471;-38
2021/08/04 07:21:13;;;;;;;11.00;9.90;;;17.40;99.90;;;;;;5042366;28;20221;-38
2021/08/04 07:23:39;;;;;;;11.60;10.50;;;17.40;99.90;;;;;;5039038;28;20195;-38
2021/08/04 07:26:05;;;;;;;12.40;11.37;;;17.50;99.90;;;;;;5029545;28;20416;-38
2021/08/04 07:28:31;;;;;;;10.40;9.50;;;17.50;99.90;;;;;;5041583;28;20934;-38
2021/08/04 07:30:57;;;;;;;12.20;11.03;;;17.60;99.90;;;;;;5036448;28;20428;-38
2021/08/04 07:33:22;;;;;;;11.57;10.47;;;17.60;99.90;;;;;;5031096;28;20433;-38
2021/08/04 07:35:48;;;;;;;13.80;12.50;;;17.70;99.90;;;;;;5029425;28;20194;-37
2021/08/04 07:38:14;;;;;;;11.97;10.77;;;17.70;99.90;;;;;;5041744;28;20194;-37
2021/08/04 07:40:42;;;;;;;12.20;10.93;;;17.90;99.90;;;;;;5026962;28;20196;-38
2021/08/04 07:43:08;;;;;;;12.00;10.83;;;18.00;99.90;;;;;;5044666;28;20244;-38
2021/08/04 07:45:34;;;;;;;11.70;10.30;;;18.10;99.90;;;;;;5038360;28;20517;-38
2021/08/04 07:48:00;;;;;;;12.50;11.20;;;18.20;99.90;;;;;;5027060;28;20948;-37
2021/08/04 07:50:25;;;;;;;10.37;9.47;;;18.40;99.90;;;;;;5027274;28;20186;-37
2021/08/04 07:52:51;;;;;;;11.93;10.80;;;18.50;99.90;;;;;;5032787;28;20250;-37
2021/08/04 07:55:17;;;;;;;11.90;10.63;;;18.50;99.90;;;;;;5036279;28;20793;-37
2021/08/04 07:57:44;;;;;;;13.10;11.80;;;18.50;99.90;;;;;;5028881;28;20194;-37
2021/08/04 08:00:10;;;;;;;11.03;9.93;;;18.60;99.90;;;;;;5036123;28;20433;-37
2021/08/04 08:02:35;;;;;;;10.80;9.70;;;18.70;99.90;;;;;;5028879;28;20516;-37
2021/08/04 08:05:01;;;;;;;9.50;8.60;;;18.70;99.90;;;;;;5035598;28;21327;-38
2021/08/04 08:07:27;;;;;;;9.00;7.70;;;18.70;99.90;;;;;;5035859;28;20190;-37
2021/08/04 08:09:52;;;;;;;11.30;10.30;;;18.80;99.90;;;;;;5042234;28;20201;-37
2021/08/04 08:12:18;;;;;;;11.50;10.40;;;18.80;99.90;;;;;;5033262;28;20186;-38
2021/08/04 08:14:44;;;;;;;11.53;9.30;;;18.80;99.90;;;;;;5031476;28;20218;-37
2021/08/04 08:17:10;;;;;;;10.57;9.50;;;18.80;99.90;;;;;;5026363;28;20252;-38
2021/08/04 08:19:35;;;;;;;10.70;9.60;;;18.80;99.90;;;;;;5033581;28;20680;-39
2021/08/04 08:22:01;;;;;;;9.10;8.20;;;18.80;99.90;;;;;;5031753;28;20218;-38
2021/08/04 08:24:27;;;;;;;10.20;9.23;;;18.80;99.90;;;;;;5039973;28;20186;-37
2021/08/04 08:26:53;;;;;;;8.73;7.93;;;18.80;99.90;;;;;;5028760;28;20182;-39
2021/08/04 08:29:19;;;;;;;10.97;9.93;;;18.90;99.90;;;;;;5032344;28;20520;-38
2021/08/04 08:31:44;;;;;;;10.70;8.40;;;19.00;99.90;;;;;;5026594;28;20205;-37
2021/08/04 08:34:10;;;;;;;10.50;9.50;;;19.00;99.90;;;;;;5026988;28;20252;-38
2021/08/04 08:36:37;;;;;;;8.57;7.77;;;19.00;99.90;;;;;;5028555;28;20278;-37
2021/08/04 08:39:09;;;;;;;10.63;9.63;;;19.00;99.90;;;;;;5032264;28;20198;-38
2021/08/04 08:41:35;;;;;;;10.67;9.57;;;19.10;99.90;;;;;;5028468;28;20951;-37
2021/08/04 08:44:01;;;;;;;9.50;8.60;;;19.20;99.90;;;;;;5032380;28;20419;-38
2021/08/04 08:46:28;;;;;;;11.83;10.60;;;19.30;99.90;;;;;;5030952;28;20182;-38
2021/08/04 08:48:54;;;;;;;11.30;9.80;;;19.30;99.90;;;;;;5025942;28;20432;-38
2021/08/04 08:51:20;;;;;;;12.70;11.23;;;19.30;99.90;;;;;;5027130;28;20433;-38
2021/08/04 08:53:47;;;;;;;11.97;10.67;;;19.10;99.90;;;;;;5040044;28;20408;-39
2021/08/04 08:56:17;;;;;;;11.87;10.77;;;19.20;99.90;;;;;;5044636;28;20193;-37
2021/08/04 08:58:44;;;;;;;12.70;10.07;;;19.10;99.90;;;;;;5028720;28;20436;-38
2021/08/04 09:01:10;;;;;;;11.03;9.77;;;19.10;99.90;;;;;;5030825;28;20516;-38
2021/08/04 09:03:35;;;;;;;10.20;9.20;;;19.20;99.90;;;;;;5027188;28;20607;-40
2021/08/04 09:06:04;;;;;;;11.97;9.60;;;19.10;99.90;;;;;;5041454;28;20854;-37
2021/08/04 09:08:35;;;;;;;12.00;9.80;;;19.10;99.90;;;;;;5040065;28;20193;-37
2021/08/04 09:11:20;;;;;;;10.13;9.20;;;19.10;99.90;;;;;;5032226;28;20428;-38
2021/08/04 09:13:47;;;;;;;9.97;9.07;;;19.10;99.90;;;;;;5025869;28;20421;-38
2021/08/04 09:16:17;;;;;;;13.23;10.07;;;19.20;99.90;;;;;;5025787;28;20425;-37
2021/08/04 09:18:44;;;;;;;10.67;9.70;;;19.20;99.90;;;;;;5025490;28;20756;-37
2021/08/04 09:21:11;;;;;;;10.80;9.73;;;19.20;99.90;;;;;;5027743;28;20903;-40
2021/08/04 09:23:48;;;;;;;11.63;10.53;;;19.20;99.90;;;;;;5032773;28;20452;-38
2021/08/04 09:26:16;;;;;;;14.73;13.50;;;19.20;99.90;;;;;;5031249;28;20417;-38
2021/08/04 09:29:02;;;;;;;13.57;11.70;;;19.30;99.90;;;;;;5024934;28;20417;-38
2021/08/04 09:31:40;;;;;;;12.53;11.33;;;19.30;99.90;;;;;;5026145;28;20544;-37
2021/08/04 09:34:25;;;;;;;12.27;11.17;;;19.20;99.90;;;;;;5032926;28;20416;-38
2021/08/04 09:37:08;;;;;;;11.57;10.40;;;19.30;99.90;;;;;;5037097;28;20439;-38
2021/08/04 09:39:39;;;;;;;11.43;9.27;;;19.20;99.90;;;;;;5033034;28;20502;-38
2021/08/04 09:42:05;;;;;;;11.70;10.00;;;19.20;99.90;;;;;;5024334;28;20448;-37
2021/08/04 09:44:32;;;;;;;10.47;9.17;;;19.30;99.90;;;;;;5030599;28;20427;-38
2021/08/04 09:47:12;;;;;;;10.63;9.00;;;19.40;99.90;;;;;;5026223;28;20425;-37
2021/08/04 09:49:39;;;;;;;10.73;9.63;;;19.60;99.90;;;;;;5025126;28;20498;-38
2021/08/04 09:52:07;;;;;;;9.90;9.00;;;19.80;99.90;;;;;;5030410;28;20969;-38
2021/08/04 09:54:39;;;;;;;13.23;10.87;;;19.90;99.90;;;;;;5039414;28;20506;-38
2021/08/04 09:57:05;;;;;;;10.87;9.33;;;20.10;99.90;;;;;;5036005;28;20504;-38
2021/08/04 09:59:30;;;;;;;9.60;8.70;;;20.20;99.90;;;;;;5033541;28;20593;-38
2021/08/04 10:01:58;;;;;;;11.00;9.10;;;20.30;99.90;;;;;;5040380;28;20449;-38
2021/08/04 10:04:24;;;;;;;9.77;8.97;;;20.30;99.90;;;;;;5027580;28;20428;-37
2021/08/04 10:07:02;;;;;;;8.80;7.30;;;20.40;99.90;;;;;;5029540;28;21001;-38
2021/08/04 10:09:27;;;;;;;9.50;8.57;;;20.40;99.90;;;;;;5043180;28;20278;-38
2021/08/04 10:11:54;;;;;;;12.43;11.40;;;20.30;99.90;;;;;;5032217;28;20932;-38
2021/08/04 10:14:21;;;;;;;11.30;10.20;;;20.20;99.90;;;;;;5029511;28;20687;-38
2021/08/04 10:16:49;;;;;;;11.20;10.20;;;20.20;99.90;;;;;;5036326;28;20513;-37
2021/08/04 10:19:16;;;;;;;10.40;9.30;;;20.20;99.90;;;;;;5029183;28;20725;-38
2021/08/04 10:21:45;;;;;;;9.27;8.40;;;20.40;99.90;;;;;;5028242;28;20452;-38
2021/08/04 10:24:13;;;;;;;7.20;6.60;;;20.40;99.90;;;;;;5040064;28;20822;-38
2021/08/04 10:26:40;;;;;;;10.07;9.07;;;20.60;99.90;;;;;;5048206;28;20435;-37
2021/08/04 10:29:06;;;;;;;8.40;7.60;;;20.80;99.90;;;;;;5029846;28;20425;-37
2021/08/04 10:31:33;;;;;;;7.40;6.90;;;20.80;99.90;;;;;;5030291;28;20765;-38
2021/08/04 10:33:59;;;;;;;7.43;6.73;;;20.90;99.90;;;;;;5028712;28;20931;-37
2021/08/04 10:36:35;;;;;;;6.70;6.17;;;20.90;99.90;;;;;;5028246;28;20448;-38
2021/08/04 10:39:14;;;;;;;4.87;4.43;;;20.90;99.90;;;;;;5036564;28;20575;-38
2021/08/04 10:41:58;;;;;;;5.87;5.37;;;20.90;99.90;;;;;;5032970;28;20425;-38
2021/08/04 10:44:24;;;;;;;6.10;4.50;;;20.80;99.90;;;;;;5028329;28;20985;-40
2021/08/04 10:46:50;;;;;;;10.23;5.40;;;20.70;99.90;;;;;;5028509;28;20417;-38
2021/08/04 10:49:25;;;;;;;4.60;4.30;;;20.70;99.90;;;;;;5028522;28;20194;-39
2021/08/04 10:51:53;;;;;;;4.87;4.47;;;20.70;99.90;;;;;;5035480;28;20427;-39
2021/08/04 10:54:19;;;;;;;5.83;5.33;;;20.60;99.90;;;;;;5032416;28;20420;-41
2021/08/04 10:56:45;;;;;;;5.90;5.40;;;20.60;99.90;;;;;;5031568;28;20421;-38
2021/08/04 10:59:11;;;;;;;6.77;6.00;;;20.50;99.90;;;;;;5028583;28;20770;-38
2021/08/04 11:01:43;;;;;;;6.70;6.00;;;20.50;99.90;;;;;;5038132;28;20178;-38
2021/08/04 11:04:10;;;;;;;6.90;6.40;;;20.50;99.90;;;;;;5029842;28;20178;-37
2021/08/04 11:07:07;;;;;;;7.00;6.40;;;20.50;99.90;;;;;;5046003;28;20473;-38
2021/08/04 11:09:34;;;;;;;7.03;6.43;;;20.50;99.90;;;;;;5041193;28;20424;-37
2021/08/04 11:12:02;;;;;;;11.23;10.23;;;20.50;99.90;;;;;;5047595;28;20536;-38
2021/08/04 11:14:41;;;;;;;11.93;10.87;;;20.50;99.90;;;;;;5027707;28;20425;-38
2021/08/04 11:17:29;;;;;;;12.50;11.37;;;20.60;99.90;;;;;;5031856;28;20429;-38
2021/08/04 11:22:31;;;;;;;12.60;11.47;;;20.60;99.90;;;;;;5031951;28;20480;-40
2021/08/04 11:24:59;;;;;;;14.67;13.23;;;20.70;99.90;;;;;;5044692;28;20912;-40
2021/08/04 11:27:28;;;;;;;13.97;12.67;;;20.70;99.90;;;;;;5027570;28;20421;-37
2021/08/04 11:29:55;;;;;;;15.63;14.23;;;20.80;99.90;;;;;;5035056;28;20420;-38
2021/08/04 11:32:23;;;;;;;16.30;14.80;;;21.00;99.90;;;;;;5028313;28;20764;-38
2021/08/04 11:34:48;;;;;;;13.53;12.23;;;21.20;99.90;;;;;;5027362;28;20645;-38
2021/08/04 11:37:15;;;;;;;13.80;12.70;;;21.20;99.90;;;;;;5026666;28;20497;-38
2021/08/04 11:39:57;;;;;;;11.60;10.60;;;21.30;99.90;;;;;;5036346;28;20182;-38
2021/08/04 11:42:24;;;;;;;12.40;11.30;;;21.40;99.90;;;;;;5032390;28;20457;-39
2021/08/04 11:44:51;;;;;;;12.97;11.77;;;21.50;99.90;;;;;;5027428;28;20437;-38
2021/08/04 11:47:17;;;;;;;13.60;12.30;;;21.70;99.90;;;;;;5037211;28;20428;-39
2021/08/04 11:49:46;;;;;;;12.03;10.83;;;21.70;99.90;;;;;;5027221;28;20911;-38
2021/08/04 11:52:13;;;;;;;11.73;10.73;;;21.80;99.90;;;;;;5030795;28;20524;-37
2021/08/04 11:54:45;;;;;;;12.70;11.40;;;21.70;99.90;;;;;;5031585;28;20416;-38
2021/08/04 11:57:30;;;;;;;11.63;10.53;;;21.70;99.90;;;;;;5033350;28;20413;-38
2021/08/04 12:00:02;;;;;;;11.83;10.00;;;21.70;99.90;;;;;;5032502;28;20855;-38
2021/08/04 12:02:33;;;;;;;10.33;9.33;;;21.70;99.90;;;;;;5032004;28;20457;-38
2021/08/04 12:04:59;;;;;;;11.17;10.07;;;21.60;99.90;;;;;;5025309;28;20989;-38
2021/08/04 12:07:31;;;;;;;9.23;8.40;;;21.70;99.90;;;;;;5026049;28;20429;-40
2021/08/04 12:10:11;;;;;;;10.07;9.07;;;21.70;99.90;;;;;;5041877;28;20878;-38
2021/08/04 12:12:37;;;;;;;8.47;7.77;;;21.80;99.90;;;;;;5036438;28;20432;-37
2021/08/04 12:15:13;;;;;;;9.50;8.70;;;21.90;99.90;;;;;;5026519;28;20418;-38
2021/08/04 12:17:39;;;;;;;9.10;8.40;;;22.00;99.90;;;;;;5046358;28;20477;-37
2021/08/04 12:20:25;;;;;;;13.27;8.60;;;22.00;99.90;;;;;;5028903;28;20425;-37
2021/08/04 12:23:07;;;;;;;8.37;7.77;;;22.10;99.90;;;;;;5038905;28;20457;-39
2021/08/04 12:25:35;;;;;;;8.37;7.67;;;22.00;99.90;;;;;;5038809;28;20396;-38
2021/08/04 12:28:00;;;;;;;9.10;7.80;;;22.10;99.90;;;;;;5029602;28;20508;-37
2021/08/04 12:30:33;;;;;;;7.73;7.10;;;22.00;99.90;;;;;;5033715;28;20516;-38
2021/08/04 12:33:11;;;;;;;8.57;7.97;;;22.00;99.90;;;;;;5026707;28;20775;-38
2021/08/04 12:38:30;;;;;;;6.27;5.77;;;21.70;99.90;;;;;;5030160;28;20995;-37
2021/08/04 12:40:57;;;;;;;7.10;6.60;;;21.70;99.90;;;;;;5038184;28;20416;-39
2021/08/04 12:43:28;;;;;;;6.40;5.90;;;21.60;99.90;;;;;;5039753;28;20787;-38
2021/08/04 12:45:56;;;;;;;6.77;5.27;;;21.50;99.90;;;;;;5029902;28;20497;-37
2021/08/04 12:48:35;;;;;;;5.97;5.47;;;21.50;99.90;;;;;;5027191;28;20433;-38